Time;durP1;ratioP1;P1;durP2;ratioP2;P2;SDS_P1;SDS_P2;PMS_P1;PMS_P2;Temp;Humidity;BMP_temperature;BMP_pressure;BME280_temperature;BME280_humidity;BME280_pressure;Samples;Min_cycle;Max_cycle;Signal;HPM_P1;HPM_P2
2023/03/19 00:02:23;;;;;;;1.95;1.45;;;;;;;10.03;98.97;101011.16;5069822;28;21071;-72
2023/03/19 00:04:49;;;;;;;3.35;1.90;;;;;;;10.05;100.00;101028.75;5066344;28;20032;-71
2023/03/19 00:07:15;;;;;;;2.88;1.55;;;;;;;10.03;99.34;101030.53;5065634;28;20045;-71
2023/03/19 00:09:41;;;;;;;3.00;1.60;;;;;;;10.03;99.38;101029.69;5063787;28;20013;-71
2023/03/19 00:12:07;;;;;;;2.72;1.58;;;;;;;10.01;100.00;101027.03;5063388;28;20044;-71
2023/03/19 00:14:33;;;;;;;3.60;1.67;;;;;;;9.97;98.89;101022.72;5062708;28;20136;-71
2023/03/19 00:17:00;;;;;;;2.90;1.50;;;;;;;9.97;98.58;101024.50;5047512;28;20124;-71
2023/03/19 00:19:25;;;;;;;2.65;1.50;;;;;;;9.99;99.55;101027.97;5065432;28;20675;-71
2023/03/19 00:21:51;;;;;;;2.00;1.48;;;;;;;9.98;99.96;101028.88;5062080;28;20036;-71
2023/03/19 00:24:16;;;;;;;4.47;1.75;;;;;;;9.96;99.80;101030.69;5056043;28;20116;-71
2023/03/19 00:26:42;;;;;;;3.17;1.60;;;;;;;9.98;100.00;101032.41;5054194;28;20037;-71
2023/03/19 00:29:08;;;;;;;2.70;1.52;;;;;;;9.97;100.00;101037.72;5053127;28;20115;-71
2023/03/19 00:31:34;;;;;;;3.38;1.40;;;;;;;9.92;100.00;101034.28;5063102;28;20127;-71
2023/03/19 00:34:01;;;;;;;2.08;1.70;;;;;;;9.91;100.00;101041.31;5040679;28;20040;-71
2023/03/19 00:36:27;;;;;;;3.88;1.75;;;;;;;9.90;100.00;101042.22;5072822;28;20442;-71
2023/03/19 00:38:53;;;;;;;3.83;2.08;;;;;;;9.87;100.00;101042.28;5065686;28;20025;-71
2023/03/19 00:41:20;;;;;;;2.85;1.73;;;;;;;9.87;100.00;101043.16;5062418;28;20083;-71
2023/03/19 00:43:46;;;;;;;3.72;1.45;;;;;;;9.85;100.00;101042.31;5061316;28;20104;-71
2023/03/19 00:46:13;;;;;;;3.13;1.67;;;;;;;9.83;100.00;101041.44;5057141;28;20425;-71
2023/03/19 00:48:42;;;;;;;2.00;1.63;;;;;;;9.79;100.00;101042.41;5062289;28;20029;-71
2023/03/19 00:51:09;;;;;;;4.30;2.00;;;;;;;9.80;100.00;101043.28;5053877;28;20037;-71
2023/03/19 00:53:43;;;;;;;4.97;1.90;;;;;;;9.77;100.00;101036.28;5058333;28;20017;-71
2023/03/19 00:56:11;;;;;;;2.63;1.90;;;;;;;9.77;100.00;101036.28;5070528;28;20119;-70
2023/03/19 00:58:37;;;;;;;3.53;1.70;;;;;;;9.77;100.00;101036.28;5067295;28;20107;-71
2023/03/19 01:01:15;;;;;;;3.55;2.00;;;;;;;9.78;100.00;101039.78;5067320;28;20032;-71
2023/03/19 01:03:41;;;;;;;3.20;1.95;;;;;;;9.75;100.00;101043.34;5082300;28;20028;-71
2023/03/19 01:06:07;;;;;;;3.00;1.70;;;;;;;9.75;100.00;101034.53;5062638;28;20624;-71
2023/03/19 01:08:32;;;;;;;3.33;2.00;;;;;;;9.75;100.00;101040.69;5060812;28;20045;-71
2023/03/19 01:11:11;;;;;;;2.95;1.90;;;;;;;9.75;100.00;101045.13;5059580;28;20047;-71
2023/03/19 01:13:37;;;;;;;4.47;2.08;;;;;;;9.73;100.00;101039.84;5057882;28;20044;-71
2023/03/19 01:16:03;;;;;;;3.65;2.10;;;;;;;9.71;100.00;101046.94;5047649;28;20055;-71
2023/03/19 01:18:29;;;;;;;5.65;2.30;;;;;;;9.71;100.00;101046.06;5071177;28;20387;-71
2023/03/19 01:20:55;;;;;;;4.53;2.45;;;;;;;9.69;100.00;101039.03;5072444;28;20059;-71
2023/03/19 01:23:22;;;;;;;5.10;2.17;;;;;;;9.68;100.00;101036.41;5071842;28;20368;-71
2023/03/19 01:25:47;;;;;;;4.05;2.10;;;;;;;9.68;100.00;101041.69;5055130;28;20029;-71
2023/03/19 01:28:13;;;;;;;3.83;2.30;;;;;;;9.68;100.00;101039.03;5073566;28;20033;-71
2023/03/19 01:30:39;;;;;;;4.68;2.30;;;;;;;9.70;100.00;101039.91;5071848;28;20031;-71
2023/03/19 01:33:23;;;;;;;3.17;2.00;;;;;;;9.71;100.00;101038.13;5072306;28;20047;-71
2023/03/19 01:35:58;;;;;;;5.20;3.00;;;;;;;9.73;100.00;101049.56;5060499;28;20115;-70
2023/03/19 01:38:27;;;;;;;4.93;2.37;;;;;;;9.69;100.00;101036.38;5056041;28;20044;-71
2023/03/19 01:40:59;;;;;;;4.50;2.63;;;;;;;9.75;100.00;101039.84;5039063;28;20029;-71
2023/03/19 01:43:27;;;;;;;6.03;2.70;;;;;;;9.76;100.00;101045.09;5071111;28;20048;-70
2023/03/19 01:46:00;;;;;;;6.03;3.03;;;;;;;9.75;100.00;101038.06;5073902;28;20028;-77
2023/03/19 01:48:45;;;;;;;4.28;2.60;;;;;;;9.76;100.00;101042.44;5069427;28;20048;-78
2023/03/19 01:51:16;;;;;;;5.57;2.50;;;;;;;9.74;100.00;101038.94;5068561;28;20032;-78
2023/03/19 01:54:21;;;;;;;7.57;2.65;;;;;;;9.78;100.00;101045.06;5045339;28;20032;-78
2023/03/19 01:57:07;;;;;;;4.70;2.42;;;;;;;9.78;100.00;101043.28;5068278;28;20055;-77
2023/03/19 02:00:06;;;;;;;5.95;2.40;;;;;;;9.80;100.00;101043.28;5051848;28;20491;-77
2023/03/19 02:02:47;;;;;;;7.38;3.05;;;;;;;9.79;100.00;101045.06;5055780;28;20467;-78
2023/03/19 02:05:43;;;;;;;6.53;3.10;;;;;;;9.85;100.00;101036.16;5055409;28;20127;-78
2023/03/19 02:08:13;;;;;;;6.97;3.22;;;;;;;9.83;100.00;101040.56;5070165;28;20119;-77
2023/03/19 02:10:41;;;;;;;4.80;2.90;;;;;;;9.85;100.00;101037.00;5065737;28;20025;-78
2023/03/19 02:13:07;;;;;;;7.60;2.95;;;;;;;9.85;100.00;101042.31;5060532;28;20020;-78
2023/03/19 02:15:33;;;;;;;6.07;3.20;;;;;;;9.83;100.00;101043.22;5075159;28;20121;-77
2023/03/19 02:17:58;;;;;;;8.52;3.08;;;;;;;9.84;100.00;101035.28;5070162;28;20024;-78
2023/03/19 02:20:25;;;;;;;5.20;3.20;;;;;;;9.88;100.00;101034.31;5049520;28;20404;-77
2023/03/19 02:22:57;;;;;;;5.65;3.42;;;;;;;9.77;100.00;101040.69;5063922;28;20518;-78
2023/03/19 02:25:38;;;;;;;6.28;3.60;;;;;;;9.80;100.00;101040.63;5040918;28;20283;-77
2023/03/19 02:28:05;;;;;;;4.87;2.90;;;;;;;9.76;100.00;101036.28;5064551;28;20025;-78
2023/03/19 02:30:32;;;;;;;6.70;3.65;;;;;;;9.76;100.00;101052.16;5067185;28;20020;-78
2023/03/19 02:33:03;;;;;;;4.95;3.15;;;;;;;9.73;100.00;101053.06;5067327;28;20150;-78
2023/03/19 02:35:33;;;;;;;6.38;3.70;;;;;;;9.73;100.00;101046.91;5063929;28;20040;-78
2023/03/19 02:38:02;;;;;;;7.43;4.15;;;;;;;9.75;100.00;101040.69;5058200;28;20013;-78
2023/03/19 02:40:37;;;;;;;5.55;3.47;;;;;;;9.69;100.00;101046.97;5056072;28;20029;-78
2023/03/19 02:43:02;;;;;;;7.85;3.53;;;;;;;9.67;100.00;101046.09;5080759;28;20051;-78
2023/03/19 02:45:30;;;;;;;6.95;3.35;;;;;;;9.69;100.00;101052.25;5064539;28;20016;-79
2023/03/19 02:47:56;;;;;;;7.28;3.67;;;;;;;9.68;100.00;101053.13;5060003;28;20492;-77
2023/03/19 02:50:21;;;;;;;7.90;4.20;;;;;;;9.70;100.00;101058.41;5058739;28;20033;-77
2023/03/19 02:52:47;;;;;;;6.15;3.88;;;;;;;9.66;100.00;101051.41;5057955;28;20084;-78
2023/03/19 02:55:13;;;;;;;5.00;3.72;;;;;;;9.68;100.00;101049.63;5053820;28;20029;-78
2023/03/19 02:57:38;;;;;;;5.22;3.88;;;;;;;9.69;100.00;101054.00;5053962;28;20064;-77
2023/03/19 03:00:06;;;;;;;8.60;4.25;;;;;;;9.73;100.00;101054.84;5034551;28;20032;-78
2023/03/19 03:02:32;;;;;;;8.55;4.50;;;;;;;9.71;100.00;101052.22;5066653;28;20433;-78
2023/03/19 03:04:57;;;;;;;8.32;4.43;;;;;;;9.69;100.00;101059.28;5070106;28;20029;-79
2023/03/19 03:07:24;;;;;;;8.57;5.20;;;;;;;9.69;100.00;101059.28;5047255;28;20048;-78
2023/03/19 03:09:50;;;;;;;10.45;5.35;;;;;;;9.72;100.00;101058.38;5069406;28;20024;-78
2023/03/19 03:12:15;;;;;;;7.88;4.70;;;;;;;9.75;100.00;101056.56;5068629;28;20055;-78
2023/03/19 03:14:41;;;;;;;7.03;5.10;;;;;;;9.73;100.00;101055.72;5054841;28;20060;-78
2023/03/19 03:17:07;;;;;;;8.20;5.18;;;;;;;9.73;100.00;101058.34;5057898;28;20044;-78
2023/03/19 03:19:33;;;;;;;8.45;5.22;;;;;;;9.71;100.00;101057.50;5069035;28;20033;-78
2023/03/19 03:21:59;;;;;;;10.63;5.25;;;;;;;9.69;100.00;101054.91;5051730;28;20124;-78
2023/03/19 03:24:28;;;;;;;6.47;4.70;;;;;;;9.69;100.00;101048.72;5058060;28;20060;-78
2023/03/19 03:26:53;;;;;;;10.32;5.28;;;;;;;9.67;100.00;101059.34;5061859;28;20083;-78
2023/03/19 03:29:20;;;;;;;10.02;5.63;;;;;;;9.66;100.00;101054.91;5059779;28;20516;-78
2023/03/19 03:31:45;;;;;;;8.98;6.70;;;;;;;9.67;100.00;101069.91;5056551;28;20395;-78
2023/03/19 03:34:11;;;;;;;9.32;5.95;;;;;;;9.64;100.00;101064.66;5055324;28;20025;-77
2023/03/19 03:36:37;;;;;;;9.48;5.82;;;;;;;9.63;100.00;101059.41;5066711;28;20033;-77
2023/03/19 03:39:03;;;;;;;7.47;5.90;;;;;;;9.62;100.00;101055.00;5053115;28;20020;-78
2023/03/19 03:41:29;;;;;;;8.43;6.00;;;;;;;9.58;100.00;101055.94;5056866;28;20033;-78
2023/03/19 03:43:55;;;;;;;9.15;6.93;;;;;;;9.53;100.00;101063.06;5057157;28;20472;-78
2023/03/19 03:46:21;;;;;;;11.15;6.50;;;;;;;9.52;100.00;101069.22;5052219;28;20102;-78
2023/03/19 03:48:50;;;;;;;9.30;6.18;;;;;;;9.46;100.00;101060.50;5070399;28;20031;-77
2023/03/19 03:51:16;;;;;;;11.43;6.68;;;;;;;9.43;100.00;101064.97;5056856;28;20135;-79
2023/03/19 03:53:42;;;;;;;11.13;7.00;;;;;;;9.39;100.00;101065.88;5038346;28;20491;-78
2023/03/19 03:56:09;;;;;;;9.20;6.35;;;;;;;9.36;100.00;101068.56;5037634;28;20398;-77
2023/03/19 03:58:34;;;;;;;9.32;6.50;;;;;;;9.36;100.00;101074.72;5071018;28;20128;-77
2023/03/19 04:01:03;;;;;;;9.02;6.63;;;;;;;9.33;100.00;101071.28;5071885;28;20123;-77
2023/03/19 04:03:30;;;;;;;8.70;6.93;;;;;;;9.32;100.00;101077.44;5053895;28;20067;-78
2023/03/19 04:05:56;;;;;;;11.25;6.70;;;;;;;9.28;100.00;101076.59;5069907;28;20021;-78
2023/03/19 04:08:22;;;;;;;12.93;7.28;;;;;;;9.23;100.00;101071.38;5057560;28;20045;-78
2023/03/19 04:10:48;;;;;;;8.27;6.15;;;;;;;9.19;100.00;101067.00;5050808;28;20033;-78
2023/03/19 04:13:13;;;;;;;9.50;6.97;;;;;;;9.14;100.00;101071.47;5062444;28;20462;-78
2023/03/19 04:15:43;;;;;;;9.20;6.40;;;;;;;9.09;100.00;101070.66;5067122;28;20052;-78
2023/03/19 04:18:10;;;;;;;11.70;7.25;;;;;;;9.06;100.00;101076.00;5067350;28;20029;-78
2023/03/19 04:20:36;;;;;;;8.00;6.60;;;;;;;9.02;100.00;101071.63;5064596;28;20025;-78
2023/03/19 04:23:02;;;;;;;8.85;6.90;;;;;;;8.95;100.00;101062.94;5065379;28;20032;-78
2023/03/19 04:25:28;;;;;;;10.95;7.30;;;;;;;8.96;100.00;101075.22;5048736;28;20035;-78
2023/03/19 04:27:58;;;;;;;12.00;7.20;;;;;;;8.93;100.00;101083.19;5075491;28;20487;-77
2023/03/19 04:30:27;;;;;;;10.55;6.97;;;;;;;8.91;100.00;101082.31;5053527;28;20123;-77
2023/03/19 04:32:52;;;;;;;12.40;7.07;;;;;;;8.88;100.00;101087.66;5055031;28;20067;-77
2023/03/19 04:35:18;;;;;;;10.75;7.30;;;;;;;8.83;100.00;101090.34;5053176;28;20041;-77
2023/03/19 04:37:47;;;;;;;11.00;6.60;;;;;;;8.77;100.00;101078.97;5049219;28;20056;-78
2023/03/19 04:40:15;;;;;;;8.38;6.70;;;;;;;8.73;100.00;101077.22;5069770;28;20043;-78
2023/03/19 04:42:43;;;;;;;10.10;6.32;;;;;;;8.67;100.00;101077.31;5068783;28;20060;-78
2023/03/19 04:45:17;;;;;;;8.45;6.40;;;;;;;8.60;100.00;101076.47;5066818;28;20032;-78
2023/03/19 04:47:43;;;;;;;6.35;5.30;;;;;;;8.58;100.00;101086.19;5046995;28;20430;-78
2023/03/19 04:50:09;;;;;;;10.20;6.45;;;;;;;8.49;100.00;101086.28;5062452;28;20024;-78
2023/03/19 04:52:38;;;;;;;10.45;6.53;;;;;;;8.40;100.00;101081.94;5061087;28;20471;-78
2023/03/19 04:55:06;;;;;;;9.43;5.55;;;;;;;8.36;100.00;101088.13;5058161;28;20498;-78
2023/03/19 04:57:43;;;;;;;7.65;5.90;;;;;;;8.32;100.00;101091.69;5056479;28;20392;-77
2023/03/19 05:00:10;;;;;;;8.32;4.93;;;;;;;8.27;100.00;101099.63;5033171;28;20033;-78
2023/03/19 05:02:38;;;;;;;9.52;6.28;;;;;;;8.16;100.00;101091.81;5054442;28;20101;-78
2023/03/19 05:05:03;;;;;;;8.02;5.95;;;;;;;8.12;100.00;101100.63;5067369;28;20036;-78
2023/03/19 05:07:29;;;;;;;10.07;6.05;;;;;;;8.10;100.00;101098.88;5071599;28;20372;-77
2023/03/19 05:09:58;;;;;;;10.35;5.70;;;;;;;8.06;100.00;101108.59;5051844;28;20029;-77
2023/03/19 05:12:24;;;;;;;9.73;5.82;;;;;;;8.06;100.00;101105.06;5032364;28;20039;-78
2023/03/19 05:14:50;;;;;;;7.97;5.95;;;;;;;8.03;100.00;101113.00;5085727;28;20167;-78
2023/03/19 05:17:36;;;;;;;8.73;5.35;;;;;;;7.94;100.00;101113.97;5062525;28;20573;-77
2023/03/19 05:20:11;;;;;;;9.00;5.40;;;;;;;7.90;100.00;101113.09;5066461;28;20041;-78
2023/03/19 05:22:41;;;;;;;12.88;5.85;;;;;;;7.82;100.00;101114.91;5042967;28;20037;-79
2023/03/19 05:25:07;;;;;;;9.35;5.43;;;;;;;7.80;100.00;101126.34;5044117;28;20036;-79
2023/03/19 05:27:32;;;;;;;7.65;5.50;;;;;;;7.77;100.00;101121.09;5070158;28;20406;-79
2023/03/19 05:30:04;;;;;;;;;;;;;;;7.80;100.00;101113.16;5050960;28;20033;-78
2023/03/19 05:32:43;;;;;;;8.70;5.38;;;;;;;7.78;100.00;101121.06;5063709;28;20359;-78
2023/03/19 05:35:16;;;;;;;9.55;5.30;;;;;;;7.73;100.00;101129.00;5084337;28;20041;-78
2023/03/19 05:37:42;;;;;;;9.40;6.18;;;;;;;7.70;100.00;101126.38;5062860;28;20025;-78
2023/03/19 05:40:08;;;;;;;9.27;5.97;;;;;;;7.70;100.00;101130.78;5062998;28;20127;-77
2023/03/19 05:42:35;;;;;;;6.55;4.15;;;;;;;7.66;100.00;101135.19;5059617;28;20029;-78
2023/03/19 05:45:01;;;;;;;13.95;6.60;;;;;;;7.67;100.00;101136.09;5058913;28;20055;-77
2023/03/19 05:47:36;;;;;;;8.75;5.40;;;;;;;7.60;100.00;101126.47;5059144;28;20040;-79
2023/03/19 05:50:02;;;;;;;7.43;5.38;;;;;;;7.59;100.00;101130.84;5059905;28;20383;-77
2023/03/19 05:52:28;;;;;;;8.35;5.82;;;;;;;7.58;100.00;101141.41;5059157;28;20447;-78
2023/03/19 05:54:57;;;;;;;10.25;5.80;;;;;;;7.53;100.00;101144.06;5070346;28;20067;-78
2023/03/19 05:57:36;;;;;;;7.10;5.47;;;;;;;7.52;100.00;101142.31;5069408;28;20046;-70
2023/03/19 06:00:17;;;;;;;8.25;5.43;;;;;;;7.47;100.00;101149.38;5068891;28;20046;-70
2023/03/19 06:02:45;;;;;;;8.90;5.85;;;;;;;7.43;100.00;101142.34;5069399;28;20083;-70
2023/03/19 06:05:25;;;;;;;8.40;5.55;;;;;;;7.40;100.00;101145.88;5065483;28;20448;-70
2023/03/19 06:07:55;;;;;;;7.00;5.30;;;;;;;7.39;100.00;101145.84;5051113;28;20094;-71
2023/03/19 06:10:36;;;;;;;8.48;5.45;;;;;;;7.38;100.00;101152.03;5047391;28;20033;-71
2023/03/19 06:13:05;;;;;;;8.55;6.15;;;;;;;7.44;100.00;101151.97;5048076;28;20059;-71
2023/03/19 06:15:33;;;;;;;10.18;6.47;;;;;;;7.44;100.00;101165.16;5057459;28;20076;-71
2023/03/19 06:18:16;;;;;;;9.93;6.00;;;;;;;7.43;100.00;101156.38;5076325;28;20037;-71
2023/03/19 06:20:43;;;;;;;11.20;6.10;;;;;;;7.42;100.00;101159.00;5071034;28;20036;-71
2023/03/19 06:23:09;;;;;;;9.32;4.80;;;;;;;7.41;100.00;101168.69;5054607;28;20063;-70
2023/03/19 06:25:35;;;;;;;9.02;6.25;;;;;;;7.41;100.00;101168.69;5035493;28;20480;-70
2023/03/19 06:28:01;;;;;;;9.95;5.82;;;;;;;7.43;100.00;101168.69;5069352;28;20029;-71
2023/03/19 06:30:33;;;;;;;8.52;5.70;;;;;;;7.44;100.00;101173.06;5069578;28;20127;-70
2023/03/19 06:33:02;;;;;;;8.45;5.85;;;;;;;7.46;100.00;101171.31;5068655;28;20029;-70
2023/03/19 06:35:31;;;;;;;8.13;6.05;;;;;;;7.46;100.00;101180.09;5050519;28;20040;-70
2023/03/19 06:37:56;;;;;;;8.50;6.25;;;;;;;7.48;100.00;101180.09;5064850;28;20033;-70
2023/03/19 06:40:22;;;;;;;12.00;6.38;;;;;;;7.49;100.00;101182.72;5064252;28;20033;-70
2023/03/19 06:42:47;;;;;;;9.27;6.38;;;;;;;7.50;100.00;101187.09;5056810;28;20086;-70
2023/03/19 06:45:18;;;;;;;10.73;5.88;;;;;;;7.52;100.00;101184.47;5059060;28;20491;-70
2023/03/19 06:47:45;;;;;;;7.60;5.82;;;;;;;7.58;100.00;101189.72;5052508;28;20060;-70
2023/03/19 06:50:12;;;;;;;9.93;6.35;;;;;;;7.59;100.00;101194.13;5055019;28;20025;-70
2023/03/19 06:52:39;;;;;;;9.38;6.10;;;;;;;7.64;100.00;101201.97;5058561;28;20045;-70
2023/03/19 06:55:05;;;;;;;7.22;5.63;;;;;;;7.68;100.00;101194.06;5071941;28;20537;-71
2023/03/19 06:57:31;;;;;;;8.63;5.78;;;;;;;7.75;100.00;101197.56;5055360;28;20032;-71
2023/03/19 06:59:57;;;;;;;7.97;5.82;;;;;;;7.83;100.00;101200.16;5059994;28;20024;-71
2023/03/19 07:02:22;;;;;;;7.15;5.63;;;;;;;7.91;100.00;101203.63;5052881;28;20113;-70
2023/03/19 07:04:48;;;;;;;11.25;6.40;;;;;;;7.95;100.00;101197.44;5060512;28;20032;-70
2023/03/19 07:07:13;;;;;;;10.52;6.40;;;;;;;8.01;100.00;101204.44;5058207;28;20115;-70
2023/03/19 07:09:39;;;;;;;9.02;6.88;;;;;;;8.06;100.00;101203.56;5070341;28;20371;-71
2023/03/19 07:12:05;;;;;;;9.88;7.32;;;;;;;8.14;100.00;101216.69;5069806;28;20045;-71
2023/03/19 07:14:31;;;;;;;9.77;7.45;;;;;;;8.22;100.00;101204.31;5058153;28;20423;-71
2023/03/19 07:16:56;;;;;;;10.07;7.40;;;;;;;8.33;100.00;101215.69;5056527;28;20045;-70
2023/03/19 07:19:22;;;;;;;10.43;8.02;;;;;;;8.43;100.00;101221.78;5054723;28;20037;-71
2023/03/19 07:21:47;;;;;;;12.38;8.13;;;;;;;8.54;100.00;101225.25;5054878;28;20036;-71
2023/03/19 07:24:13;;;;;;;10.88;7.10;;;;;;;8.61;100.00;101226.09;5051603;28;20040;-70
2023/03/19 07:26:38;;;;;;;10.40;6.93;;;;;;;8.66;100.00;101229.56;5056721;28;20047;-70
2023/03/19 07:29:04;;;;;;;10.40;7.38;;;;;;;8.75;100.00;101234.78;5070136;28;20056;-71
2023/03/19 07:31:30;;;;;;;11.50;7.57;;;;;;;8.84;100.00;101236.47;5065277;28;20028;-71
2023/03/19 07:33:55;;;;;;;14.52;7.30;;;;;;;8.94;100.00;101238.13;5067710;28;20033;-70
2023/03/19 07:36:21;;;;;;;13.30;7.30;;;;;;;9.04;100.00;101242.44;5049084;28;20503;-71
2023/03/19 07:38:46;;;;;;;15.57;7.28;;;;;;;9.14;100.00;101245.00;5060140;28;20025;-71
2023/03/19 07:41:12;;;;;;;10.18;6.80;;;;;;;9.23;100.00;101248.44;5068548;28;20040;-71
2023/03/19 07:43:38;;;;;;;13.93;6.50;;;;;;;9.30;100.00;101243.97;5069832;28;20033;-71
2023/03/19 07:46:03;;;;;;;13.75;6.28;;;;;;;9.38;100.00;101239.47;5071365;28;20168;-71
2023/03/19 07:48:29;;;;;;;15.07;7.22;;;;;;;9.45;100.00;101245.56;5064678;28;20025;-71
2023/03/19 07:50:54;;;;;;;14.43;5.95;;;;;;;9.49;100.00;101252.56;5071317;28;20072;-72
2023/03/19 07:53:20;;;;;;;14.15;5.18;;;;;;;9.45;100.00;101240.28;5067188;28;20025;-71
2023/03/19 07:55:47;;;;;;;13.27;5.15;;;;;;;9.46;100.00;101237.63;5058820;28;20063;-71
2023/03/19 07:58:12;;;;;;;14.93;5.47;;;;;;;9.49;100.00;101252.56;5053658;28;20108;-71
2023/03/19 08:00:38;;;;;;;14.70;5.55;;;;;;;9.53;100.00;101240.19;5066903;28;20556;-71
2023/03/19 08:03:03;;;;;;;16.02;5.45;;;;;;;9.52;100.00;101246.38;5069403;28;20027;-71
2023/03/19 08:05:29;;;;;;;13.70;5.65;;;;;;;9.50;100.00;101241.13;5052688;28;20203;-71
2023/03/19 08:07:54;;;;;;;14.80;5.50;;;;;;;9.50;100.00;101249.03;5069447;28;20029;-71
2023/03/19 08:10:21;;;;;;;16.58;5.60;;;;;;;9.51;100.00;101257.84;5069209;28;20451;-71
2023/03/19 08:12:47;;;;;;;16.20;6.20;;;;;;;9.53;100.00;101261.34;5070807;28;20384;-71
2023/03/19 08:15:13;;;;;;;15.55;5.55;;;;;;;9.51;100.00;101268.41;5070549;28;20060;-71
2023/03/19 08:17:39;;;;;;;14.77;4.57;;;;;;;9.46;100.00;101260.53;5068732;28;20396;-70
2023/03/19 08:20:08;;;;;;;17.45;5.50;;;;;;;9.41;100.00;101265.88;5058036;28;20085;-70
2023/03/19 08:22:37;;;;;;;13.23;5.40;;;;;;;9.39;100.00;101267.63;5070791;28;20025;-70
2023/03/19 08:25:04;;;;;;;11.30;5.10;;;;;;;9.43;100.00;101265.84;5071157;28;20390;-70
2023/03/19 08:27:30;;;;;;;17.15;4.45;;;;;;;9.40;100.00;101271.19;5036180;28;20028;-71
2023/03/19 08:29:57;;;;;;;11.05;4.75;;;;;;;9.45;100.00;101274.66;5071224;28;20460;-78
2023/03/19 08:32:23;;;;;;;13.13;5.18;;;;;;;9.57;100.00;101276.28;5056996;28;20029;-78
2023/03/19 08:34:49;;;;;;;14.57;6.07;;;;;;;9.71;100.00;101273.50;5073656;28;20041;-78
2023/03/19 08:37:15;;;;;;;13.27;6.50;;;;;;;9.82;100.00;101280.41;5073032;28;20115;-78
2023/03/19 08:39:40;;;;;;;19.33;8.10;;;;;;;9.87;100.00;101283.00;5073133;28;20424;-79
2023/03/19 08:42:06;;;;;;;17.63;7.80;;;;;;;9.96;100.00;101282.00;5074363;28;20024;-79
2023/03/19 08:44:31;;;;;;;18.55;8.40;;;;;;;9.99;100.00;101285.50;5075010;28;20040;-78
2023/03/19 08:46:57;;;;;;;15.57;8.02;;;;;;;10.04;100.00;101288.97;5073261;28;20020;-71
2023/03/19 08:49:22;;;;;;;18.60;9.15;;;;;;;10.09;100.00;101286.28;5059932;28;21270;-70
2023/03/19 08:51:48;;;;;;;17.27;9.52;;;;;;;10.17;100.00;101283.53;5064486;28;20024;-71
2023/03/19 08:54:14;;;;;;;21.30;9.00;;;;;;;10.30;100.00;101291.28;5074019;28;20052;-71
2023/03/19 08:56:39;;;;;;;18.33;9.23;;;;;;;10.43;100.00;101301.72;5023144;28;20020;-70
2023/03/19 08:59:05;;;;;;;19.17;9.07;;;;;;;10.43;99.74;101299.94;5073896;28;20390;-70
2023/03/19 09:01:30;;;;;;;15.23;8.02;;;;;;;10.39;98.96;101302.69;5072514;28;20094;-71
2023/03/19 09:03:56;;;;;;;17.85;8.82;;;;;;;10.36;98.46;101306.25;5073847;28;20387;-70
2023/03/19 09:06:21;;;;;;;15.43;8.45;;;;;;;10.35;99.20;101304.47;5073786;28;20105;-71
2023/03/19 09:08:47;;;;;;;14.02;7.82;;;;;;;10.31;98.16;101308.94;5071134;28;20048;-71
2023/03/19 09:11:13;;;;;;;20.30;8.38;;;;;;;10.33;97.87;101301.84;5072124;28;20119;-71
2023/03/19 09:13:39;;;;;;;14.85;8.15;;;;;;;10.36;97.15;101308.88;5056033;28;20048;-71
2023/03/19 09:16:05;;;;;;;16.35;7.75;;;;;;;10.41;97.79;101308.78;5072119;28;20098;-71
2023/03/19 09:18:35;;;;;;;19.27;8.15;;;;;;;10.54;96.89;101315.69;5073778;28;20422;-70
2023/03/19 09:21:01;;;;;;;15.10;7.38;;;;;;;10.58;95.76;101316.50;5073671;28;20032;-71
2023/03/19 09:23:27;;;;;;;17.92;7.72;;;;;;;10.53;95.37;101328.06;5072286;28;20036;-70
2023/03/19 09:25:53;;;;;;;16.55;7.97;;;;;;;10.51;95.05;101332.50;5073803;28;20089;-71
2023/03/19 09:28:19;;;;;;;18.10;8.18;;;;;;;10.48;95.02;101337.84;5073171;28;20040;-70
2023/03/19 09:30:46;;;;;;;15.30;7.80;;;;;;;10.46;94.91;101323.75;5072313;28;20111;-70
2023/03/19 09:33:12;;;;;;;15.02;7.65;;;;;;;10.51;95.65;101329.84;5073206;28;20062;-70
2023/03/19 09:35:38;;;;;;;18.60;7.70;;;;;;;10.48;93.41;101324.59;5055457;28;20037;-70
2023/03/19 09:38:04;;;;;;;22.02;7.65;;;;;;;10.59;93.74;101332.38;5073016;28;20043;-71
2023/03/19 09:40:46;;;;;;;16.95;8.38;;;;;;;10.71;92.82;101336.66;5073241;28;20029;-71
2023/03/19 09:43:26;;;;;;;15.55;7.55;;;;;;;10.75;92.88;101343.63;5071771;28;20044;-71
2023/03/19 09:45:52;;;;;;;16.25;9.20;;;;;;;10.89;93.51;101335.50;5071199;28;20103;-71
2023/03/19 09:48:43;;;;;;;19.95;7.38;;;;;;;10.99;91.46;101347.69;5063942;28;20090;-71
2023/03/19 09:51:19;;;;;;;17.70;7.50;;;;;;;11.14;91.31;101341.28;5067048;28;20056;-71
2023/03/19 09:54:35;;;;;;;15.35;7.50;;;;;;;11.30;91.29;101349.84;5072602;28;20032;-71
2023/03/19 09:57:00;;;;;;;18.40;8.43;;;;;;;11.49;90.77;101353.06;5063246;28;20093;-71
2023/03/19 09:59:28;;;;;;;14.82;8.15;;;;;;;11.63;90.17;101346.63;5072673;28;20028;-71
2023/03/19 10:02:12;;;;;;;15.88;7.20;;;;;;;11.82;89.62;101343.63;5072535;28;20068;-71
2023/03/19 10:04:46;;;;;;;15.02;7.47;;;;;;;11.95;88.15;101347.81;5072790;28;20081;-71
2023/03/19 10:07:33;;;;;;;18.63;8.02;;;;;;;12.04;87.22;101345.00;5071099;28;20060;-71
2023/03/19 10:10:16;;;;;;;17.75;7.55;;;;;;;12.15;86.76;101342.13;5061861;28;20055;-71
2023/03/19 10:12:54;;;;;;;20.77;7.70;;;;;;;12.24;85.14;101344.59;5072218;28;20044;-71
2023/03/19 10:15:31;;;;;;;12.88;6.40;;;;;;;12.45;87.17;101339.72;5072348;28;20407;-71
2023/03/19 10:18:12;;;;;;;16.00;7.22;;;;;;;12.63;86.15;101349.06;5072277;28;20040;-71
2023/03/19 10:20:43;;;;;;;16.75;6.90;;;;;;;12.66;86.12;101351.66;5072634;28;20203;-71
2023/03/19 10:23:21;;;;;;;;;;;;;;;12.62;85.96;101349.97;5071502;28;20054;-71
2023/03/19 10:25:47;;;;;;;13.75;6.55;;;;;;;12.47;86.50;101349.41;5071274;28;20075;-71
2023/03/19 10:28:15;;;;;;;16.67;6.75;;;;;;;12.48;85.65;101353.78;5070774;28;20028;-71
2023/03/19 10:30:50;;;;;;;19.48;6.75;;;;;;;12.43;85.15;101355.69;5072540;28;20036;-71
2023/03/19 10:33:25;;;;;;;13.40;6.13;;;;;;;12.39;85.93;101361.97;5072048;28;20426;-71
2023/03/19 10:36:02;;;;;;;11.57;6.38;;;;;;;12.31;86.02;101358.59;5071136;28;20051;-71
2023/03/19 10:38:29;;;;;;;14.75;6.55;;;;;;;12.28;87.45;101371.94;5070684;28;20035;-71
2023/03/19 10:41:20;;;;;;;18.65;6.85;;;;;;;12.29;85.87;101368.41;5072255;28;20035;-71
2023/03/19 10:44:08;;;;;;;15.63;7.15;;;;;;;12.31;86.67;101363.91;5071935;28;20056;-71
2023/03/19 10:46:39;;;;;;;14.30;6.38;;;;;;;12.37;86.21;101366.44;5070145;28;20044;-71
2023/03/19 10:49:10;;;;;;;14.65;6.50;;;;;;;12.35;85.08;101375.34;5070794;28;20032;-71
2023/03/19 10:51:37;;;;;;;16.50;6.53;;;;;;;12.40;86.70;101369.03;5070683;28;20039;-71
2023/03/19 10:54:19;;;;;;;12.60;6.40;;;;;;;12.50;85.53;101371.50;5070772;28;20028;-71
2023/03/19 10:56:46;;;;;;;17.67;6.68;;;;;;;12.66;85.05;101372.91;5071048;28;20040;-71
2023/03/19 10:59:25;;;;;;;15.20;6.72;;;;;;;12.72;83.08;101375.44;5071811;28;20031;-71
2023/03/19 11:02:13;;;;;;;13.55;7.07;;;;;;;12.84;85.78;101372.50;5071773;28;20111;-71
2023/03/19 11:04:38;;;;;;;13.30;6.45;;;;;;;12.89;83.85;101375.94;5070280;28;20139;-71
2023/03/19 11:07:13;;;;;;;12.90;6.82;;;;;;;12.87;83.56;101379.53;5071458;28;20104;-71
2023/03/19 11:09:58;;;;;;;15.23;7.15;;;;;;;12.92;85.03;101377.66;5069696;28;20032;-71
2023/03/19 11:12:32;;;;;;;15.88;7.28;;;;;;;12.98;84.22;101384.59;5070389;28;20044;-71
2023/03/19 11:15:02;;;;;;;20.23;8.65;;;;;;;13.03;83.14;101383.59;5058480;28;20071;-71
2023/03/19 11:17:46;;;;;;;15.32;8.23;;;;;;;13.13;82.87;101386.91;5071412;28;20123;-71
2023/03/19 11:20:17;;;;;;;16.00;8.35;;;;;;;13.22;84.01;101388.47;5059475;28;20029;-71
2023/03/19 11:22:43;;;;;;;15.63;8.43;;;;;;;13.18;82.39;101392.09;5071127;28;20100;-71
2023/03/19 11:25:51;;;;;;;20.58;8.82;;;;;;;13.29;83.70;101379.47;5071717;28;20048;-71
2023/03/19 11:28:24;;;;;;;14.27;8.48;;;;;;;13.86;84.64;101386.00;5009109;28;20124;-71
2023/03/19 11:30:52;;;;;;;19.73;8.43;;;;;;;14.40;79.55;101383.56;4992922;28;20053;-71
2023/03/19 11:33:20;;;;;;;16.90;8.30;;;;;;;14.83;78.59;101384.09;5044059;28;20036;-71